Jeffrey City, Wyoming
Current Conditions -  °F | °C
As of 5:55 AM on Saturday 25 Oct 2014 (Local Time) from KFWZ Reporting Station
Clear Clear  
Wind Chill: 41°   Ceiling: Unl
Heat Index: 45°   Visibility: 10mi
Dew Point: 18°   Wind: 7mph
Humidity: 34%   Direction: 240°WSW
Pressure: 30.25"   Gusts: NA
Location:  42.49°N, 107.83°W
Report Text: KFWZ 251155Z AUTO 24006KT 10SM CLR 07/M08 A3025 RMK AO2
Loading
Personal Weather Stations






























Interactive Weather Map
Tropical Storm Tracking
New forecast layout! Learn more

10-Day Weather Forecast

Advertisements
Track Severe Weather on mobile